Dannemora, NY (12929)

12:47 AM EST on December 22, 2014 (GMT -0500)
West Plattsburgh | Change Station
CLOSE
Current Station
Personal Weather Station
Location: Morrisonville, NY
Elevation: 590 ft
Nearby Weather Stations

Elev 590 ft 44.71 °N, 73.59 °W | Updated 0 second ago

Partly Cloudy
Partly Cloudy
21.4 °F
Feels Like 21 °F
N
0.0
Wind Variable Wind from SSW
Gusts 0.0 mph

Today
High -- | Low -- °F
--% Chance of Precip.
Yesterday
High -- | Low -- °F
Precip. -- in
7:29 AM 4:17 PM
New Moon, 0% visible
Pressure 30.40 in
Visibility 5.0 miles
Clouds Overcast 700 ft
Windchill 21 °F
Dew Point 17 °F
Humidity 83%
Rainfall 0.00 in
Snow Depth Not available.
UV 0 out of 12
Pollen .10 out of 12
Air Quality Not available.
Flu Activity Not available.
METAR KPBG 220453Z AUTO 00000KT 5SM BR OVC007 M06/M07 A3039 RMK AO2 SLP295 T10561072 410501089

More Conditions Fewer Conditions

Pressure 30.40 in
Visibility 5.0 miles
Clouds Overcast 700 ft
Windchill 21 °F
Dew Point 17 °F
Humidity 83%
Rainfall 0.00 in
Snow Depth Not available.
UV 0 out of 12
Pollen .10 out of 12
Air Quality Not available.
Flu Activity Not available.
METAR KPBG 220453Z AUTO 00000KT 5SM BR OVC007 M06/M07 A3039 RMK AO2 SLP295 T10561072 410501089

More Conditions Fewer Conditions

10-Day Weather Forecast

Almanac

Astronomy

Dec. 22, 2014 Rise Set
Actual Time
Civil Twilight
Nautical Twilight
Astronomical Twilight
Moon
Length of Visible Light
Length of Day
Tomorrow will be .
, % of the Moon is Illuminated

Today's Extremes

State Highs State Lows

Community

WunderPhotos

Upload Photos

1,779,549 photos uploaded!

WunderBlogs® & News

Nearby

Air Quality

  Air Quality AQ Index Pollutant
Not available.

Snow Depth

Station Depth Elevation

Earthquake Activity

City Distance Mag. Time & Date
Minimum magnitude displayed is 2.5.

Coastal Water Temperatures

Place Temperature

Nearby Weather Stations